Time;durP1;ratioP1;P1;durP2;ratioP2;P2;SDS_P1;SDS_P2;PMS_P1;PMS_P2;Temp;Humidity;BMP_temperature;BMP_pressure;BME280_temperature;BME280_humidity;BME280_pressure;Samples;Min_cycle;Max_cycle;Signal;HPM_P1;HPM_P2
2022/08/28 00:01:30;;;;;;;2.47;1.90;;;;;;;;;;5057674;28;20033;-88
2022/08/28 00:03:58;;;;;;;2.83;2.25;;;;;;;;;;5023720;28;20094;-85
2022/08/28 00:06:23;;;;;;;3.35;2.67;;;;;;;;;;5056998;28;20151;-87
2022/08/28 00:08:49;;;;;;;4.28;2.38;;;;;;;;;;5057246;28;20075;-87
2022/08/28 00:11:14;;;;;;;4.10;2.60;;;;;;;;;;5057112;28;20083;-87
2022/08/28 00:13:40;;;;;;;4.30;2.53;;;;;;;;;;5057374;28;20033;-87
2022/08/28 00:16:06;;;;;;;3.22;2.40;;;;;;;;;;5056507;28;20047;-87
2022/08/28 00:18:32;;;;;;;3.05;2.10;;;;;;;;;;5056730;28;20456;-87
2022/08/28 00:20:58;;;;;;;4.35;2.35;;;;;;;;;;5039325;28;20037;-87
2022/08/28 00:23:24;;;;;;;4.43;2.28;;;;;;;;;;5056309;28;20097;-87
2022/08/28 00:25:51;;;;;;;5.00;2.38;;;;;;;;;;5039034;28;20036;-87
2022/08/28 00:28:17;;;;;;;2.97;1.98;;;;;;;;;;5057015;28;20443;-87
2022/08/28 00:30:49;;;;;;;2.92;2.00;;;;;;;;;;5056957;28;20096;-87
2022/08/28 00:33:20;;;;;;;3.42;2.10;;;;;;;;;;5039089;28;20100;-87
2022/08/28 00:35:46;;;;;;;2.55;1.88;;;;;;;;;;5056535;28;20029;-87
2022/08/28 00:38:13;;;;;;;3.03;1.92;;;;;;;;;;5056970;28;20103;-87
2022/08/28 00:40:43;;;;;;;3.35;1.90;;;;;;;;;;5039553;28;20045;-87
2022/08/28 00:43:09;;;;;;;3.83;2.10;;;;;;;;;;5056721;28;20036;-86
2022/08/28 00:45:36;;;;;;;2.45;1.90;;;;;;;;;;5038390;28;20044;-87
2022/08/28 00:48:02;;;;;;;3.75;2.05;;;;;;;;;;5057185;28;20032;-87
2022/08/28 00:53:18;;;;;;;2.72;2.03;;;;;;;;;;5056821;28;20103;-86
2022/08/28 00:55:44;;;;;;;2.88;1.75;;;;;;;;;;5038869;28;20497;-87
2022/08/28 00:58:10;;;;;;;2.85;1.98;;;;;;;;;;5057261;28;20040;-86
2022/08/28 01:00:37;;;;;;;2.28;1.85;;;;;;;;;;5039446;28;20039;-87
2022/08/28 01:03:04;;;;;;;3.33;1.70;;;;;;;;;;5056964;28;20033;-87
2022/08/28 01:05:30;;;;;;;2.78;1.88;;;;;;;;;;5038609;28;20108;-87
2022/08/28 01:07:57;;;;;;;4.30;2.22;;;;;;;;;;5055900;28;20083;-87
2022/08/28 01:10:25;;;;;;;3.38;2.00;;;;;;;;;;5056419;28;20429;-87
2022/08/28 01:12:53;;;;;;;3.45;2.22;;;;;;;;;;5038456;28;20393;-87
2022/08/28 01:15:23;;;;;;;2.90;2.10;;;;;;;;;;5055971;28;20545;-87
2022/08/28 01:17:52;;;;;;;3.58;2.22;;;;;;;;;;5056858;28;20044;-88
2022/08/28 01:20:21;;;;;;;3.50;1.90;;;;;;;;;;5056974;28;20071;-88
2022/08/28 01:22:52;;;;;;;4.70;2.00;;;;;;;;;;5059450;28;20032;-87
2022/08/28 01:25:21;;;;;;;3.38;2.00;;;;;;;;;;5058696;28;20036;-87
2022/08/28 01:27:46;;;;;;;3.03;2.28;;;;;;;;;;5059596;28;20037;-87
2022/08/28 01:30:15;;;;;;;2.78;2.10;;;;;;;;;;5058607;28;20040;-89
2022/08/28 01:32:48;;;;;;;2.78;2.00;;;;;;;;;;5059069;28;20036;-88
2022/08/28 01:35:17;;;;;;;4.45;2.10;;;;;;;;;;5059723;28;20040;-88
2022/08/28 01:37:43;;;;;;;2.83;2.03;;;;;;;;;;5063444;28;20041;-87
2022/08/28 01:40:12;;;;;;;2.90;2.17;;;;;;;;;;5063224;28;20553;-87
2022/08/28 01:42:40;;;;;;;3.42;2.30;;;;;;;;;;5045338;28;20037;-87
2022/08/28 01:45:09;;;;;;;3.08;2.33;;;;;;;;;;5062585;28;20524;-87
2022/08/28 01:47:36;;;;;;;2.80;2.40;;;;;;;;;;5044152;28;20747;-88
2022/08/28 01:50:04;;;;;;;4.47;2.60;;;;;;;;;;5063188;28;20017;-88
2022/08/28 01:52:30;;;;;;;3.65;2.25;;;;;;;;;;5045404;28;20548;-88
2022/08/28 01:54:55;;;;;;;3.33;2.13;;;;;;;;;;5044192;28;20037;-88
2022/08/28 01:57:22;;;;;;;3.35;2.30;;;;;;;;;;5062192;28;20048;-88
2022/08/28 01:59:48;;;;;;;3.72;2.38;;;;;;;;;;5062911;28;20037;-88
2022/08/28 02:02:14;;;;;;;3.53;2.58;;;;;;;;;;5044095;28;20139;-88
2022/08/28 02:04:40;;;;;;;3.67;2.67;;;;;;;;;;5059705;28;20033;-88
2022/08/28 02:07:06;;;;;;;4.05;2.70;;;;;;;;;;5061561;28;20041;-89
2022/08/28 02:09:31;;;;;;;2.60;2.30;;;;;;;;;;5062697;28;20486;-88
2022/08/28 02:11:57;;;;;;;3.60;2.40;;;;;;;;;;5060488;28;20032;-87
2022/08/28 02:14:22;;;;;;;3.03;2.38;;;;;;;;;;5062124;28;20045;-88
2022/08/28 02:16:48;;;;;;;4.22;2.47;;;;;;;;;;5062078;28;20035;-88
2022/08/28 02:19:14;;;;;;;2.97;2.13;;;;;;;;;;5062712;28;20029;-87
2022/08/28 02:21:40;;;;;;;3.55;2.03;;;;;;;;;;5063990;28;20029;-88
2022/08/28 02:24:05;;;;;;;2.60;2.03;;;;;;;;;;5063553;28;20040;-87
2022/08/28 02:26:31;;;;;;;3.35;2.40;;;;;;;;;;5059773;28;20094;-87
2022/08/28 02:28:57;;;;;;;2.55;2.13;;;;;;;;;;5060187;28;20029;-88
2022/08/28 02:31:24;;;;;;;4.78;2.42;;;;;;;;;;5059884;28;20029;-87
2022/08/28 02:33:50;;;;;;;4.70;2.08;;;;;;;;;;5044295;28;20033;-87
2022/08/28 02:36:16;;;;;;;3.50;2.60;;;;;;;;;;5059649;28;20036;-88
2022/08/28 02:38:43;;;;;;;2.70;2.20;;;;;;;;;;5059797;28;20033;-86
2022/08/28 02:41:10;;;;;;;4.00;2.20;;;;;;;;;;5059578;28;20036;-87
2022/08/28 02:43:36;;;;;;;3.33;2.17;;;;;;;;;;5041822;28;20051;-87
2022/08/28 02:46:03;;;;;;;3.20;2.35;;;;;;;;;;5058370;28;20123;-87
2022/08/28 02:48:30;;;;;;;2.97;2.22;;;;;;;;;;5059713;28;20044;-87
2022/08/28 02:51:01;;;;;;;3.00;2.30;;;;;;;;;;5060754;28;20029;-88
2022/08/28 02:53:28;;;;;;;2.60;2.40;;;;;;;;;;5044175;28;20040;-87
2022/08/28 02:55:57;;;;;;;2.90;2.05;;;;;;;;;;5041573;28;20061;-87
2022/08/28 02:58:25;;;;;;;4.03;2.30;;;;;;;;;;5062060;28;20037;-86
2022/08/28 03:00:52;;;;;;;3.47;2.15;;;;;;;;;;5043651;28;20089;-87
2022/08/28 03:03:17;;;;;;;3.53;2.00;;;;;;;;;;5060757;28;20040;-87
2022/08/28 03:05:43;;;;;;;3.55;2.45;;;;;;;;;;5042315;28;20059;-85
2022/08/28 03:08:09;;;;;;;2.17;1.98;;;;;;;;;;5042188;28;20646;-87
2022/08/28 03:10:34;;;;;;;3.85;1.90;;;;;;;;;;5059411;28;20123;-88
2022/08/28 03:13:00;;;;;;;3.10;2.17;;;;;;;;;;5041368;28;20091;-88
2022/08/28 03:15:26;;;;;;;3.63;2.30;;;;;;;;;;5040980;28;20043;-87
2022/08/28 03:17:51;;;;;;;2.45;2.17;;;;;;;;;;5059326;28;20060;-86
2022/08/28 03:20:17;;;;;;;4.18;2.20;;;;;;;;;;5059886;28;20037;-87
2022/08/28 03:25:28;;;;;;;3.47;2.28;;;;;;;;;;5059095;28;20121;-86
2022/08/28 03:27:54;;;;;;;2.42;2.20;;;;;;;;;;5040785;28;20045;-87
2022/08/28 03:30:21;;;;;;;2.95;2.28;;;;;;;;;;5040508;28;20029;-87
2022/08/28 03:32:47;;;;;;;3.42;2.33;;;;;;;;;;5059280;28;20551;-87
2022/08/28 03:35:13;;;;;;;3.65;2.20;;;;;;;;;;5040593;28;20056;-87
2022/08/28 03:37:39;;;;;;;3.35;2.30;;;;;;;;;;5058651;28;20052;-86
2022/08/28 03:40:07;;;;;;;3.42;2.10;;;;;;;;;;5058685;28;20033;-87
2022/08/28 03:42:36;;;;;;;3.25;2.30;;;;;;;;;;5040607;28;20104;-87
2022/08/28 03:45:01;;;;;;;3.33;2.05;;;;;;;;;;5058450;28;20462;-87
2022/08/28 03:47:27;;;;;;;3.42;2.00;;;;;;;;;;5057784;28;20028;-87
2022/08/28 03:49:56;;;;;;;2.70;1.80;;;;;;;;;;5058465;28;20029;-87
2022/08/28 03:52:22;;;;;;;3.33;2.10;;;;;;;;;;5057864;28;20029;-87
2022/08/28 03:54:48;;;;;;;1.98;1.65;;;;;;;;;;5057273;28;20401;-87
2022/08/28 03:57:18;;;;;;;3.78;2.10;;;;;;;;;;5039385;28;20489;-87
2022/08/28 03:59:49;;;;;;;3.03;1.83;;;;;;;;;;5056446;28;20040;-87
2022/08/28 04:02:17;;;;;;;5.03;1.92;;;;;;;;;;5040716;28;20033;-87
2022/08/28 04:04:44;;;;;;;3.33;1.77;;;;;;;;;;5039926;28;20040;-87
2022/08/28 04:07:09;;;;;;;1.90;1.70;;;;;;;;;;5057028;28;20120;-87
2022/08/28 04:09:35;;;;;;;2.25;1.75;;;;;;;;;;5057593;28;20053;-87
2022/08/28 04:12:01;;;;;;;3.85;1.98;;;;;;;;;;5039809;28;20405;-87
2022/08/28 04:14:26;;;;;;;3.40;1.80;;;;;;;;;;5057100;28;20032;-87
2022/08/28 04:16:52;;;;;;;3.10;1.70;;;;;;;;;;5040079;28;20033;-87
2022/08/28 04:19:20;;;;;;;2.25;1.80;;;;;;;;;;5057457;28;20048;-86
2022/08/28 04:21:46;;;;;;;2.95;1.80;;;;;;;;;;5057125;28;20393;-87
2022/08/28 04:24:12;;;;;;;3.25;1.90;;;;;;;;;;5038940;28;20039;-86
2022/08/28 04:26:38;;;;;;;1.67;1.45;;;;;;;;;;5056553;28;20104;-86
2022/08/28 04:29:04;;;;;;;5.38;1.90;;;;;;;;;;5056890;28;20025;-86
2022/08/28 04:31:30;;;;;;;2.65;1.70;;;;;;;;;;5056606;28;20025;-87
2022/08/28 04:33:57;;;;;;;2.40;1.83;;;;;;;;;;5038943;28;20036;-86
2022/08/28 04:36:23;;;;;;;1.92;1.73;;;;;;;;;;5039298;28;20033;-87
2022/08/28 04:38:49;;;;;;;2.88;1.65;;;;;;;;;;5039393;28;20040;-87
2022/08/28 04:41:15;;;;;;;2.08;1.73;;;;;;;;;;5057079;28;20417;-87
2022/08/28 04:43:41;;;;;;;3.00;1.60;;;;;;;;;;5056957;28;20037;-86
2022/08/28 04:46:10;;;;;;;1.90;1.70;;;;;;;;;;5039075;28;20127;-87
2022/08/28 04:48:36;;;;;;;2.78;1.75;;;;;;;;;;5057464;28;20028;-86
2022/08/28 04:51:04;;;;;;;2.63;1.55;;;;;;;;;;5057124;28;20075;-87
2022/08/28 04:53:29;;;;;;;2.78;1.70;;;;;;;;;;5057495;28;20041;-86
2022/08/28 04:55:57;;;;;;;4.38;1.70;;;;;;;;;;5039264;28;20043;-87
2022/08/28 04:58:24;;;;;;;4.97;1.90;;;;;;;;;;5057411;28;20055;-87
2022/08/28 05:00:50;;;;;;;2.78;1.80;;;;;;;;;;5057745;28;20041;-87
2022/08/28 05:03:16;;;;;;;2.72;2.00;;;;;;;;;;5057490;28;20032;-88
2022/08/28 05:05:48;;;;;;;3.10;1.80;;;;;;;;;;5058598;28;20044;-88
2022/08/28 05:08:16;;;;;;;3.78;2.17;;;;;;;;;;5059604;28;20035;-89
2022/08/28 05:10:42;;;;;;;5.05;2.20;;;;;;;;;;5059401;28;20025;-88
2022/08/28 05:13:10;;;;;;;4.05;2.42;;;;;;;;;;5059987;28;20043;-88
2022/08/28 05:15:44;;;;;;;2.88;1.88;;;;;;;;;;5059510;28;20447;-89
2022/08/28 05:18:12;;;;;;;2.20;1.80;;;;;;;;;;5042426;28;20033;-89
2022/08/28 05:20:40;;;;;;;3.20;2.20;;;;;;;;;;5060118;28;20036;-87
2022/08/28 05:23:08;;;;;;;3.42;2.00;;;;;;;;;;5060357;28;20131;-88
2022/08/28 05:25:38;;;;;;;3.13;1.83;;;;;;;;;;5058522;28;20036;-88
2022/08/28 05:28:05;;;;;;;2.40;2.05;;;;;;;;;;5042137;28;20086;-88
2022/08/28 05:30:32;;;;;;;2.08;1.70;;;;;;;;;;5059746;28;20111;-88
2022/08/28 05:32:58;;;;;;;3.17;1.75;;;;;;;;;;5060294;28;20033;-87
2022/08/28 05:35:27;;;;;;;2.33;1.70;;;;;;;;;;5041587;28;20033;-88
2022/08/28 05:37:53;;;;;;;3.33;1.77;;;;;;;;;;5059686;28;20036;-89
2022/08/28 05:40:21;;;;;;;2.00;1.70;;;;;;;;;;5058742;28;20056;-87
2022/08/28 05:42:48;;;;;;;2.65;1.50;;;;;;;;;;5040437;28;20086;-88
2022/08/28 05:45:13;;;;;;;4.00;1.70;;;;;;;;;;5058528;28;20025;-88
2022/08/28 05:47:39;;;;;;;2.85;1.60;;;;;;;;;;5059821;28;20521;-88
2022/08/28 05:50:06;;;;;;;1.98;1.60;;;;;;;;;;5056280;28;20033;-87
2022/08/28 05:52:33;;;;;;;4.25;1.77;;;;;;;;;;5057055;28;20037;-88
2022/08/28 05:54:59;;;;;;;2.53;1.70;;;;;;;;;;5058182;28;20083;-87
2022/08/28 05:57:25;;;;;;;3.60;1.65;;;;;;;;;;5057231;28;20041;-87
2022/08/28 05:59:50;;;;;;;3.80;1.98;;;;;;;;;;5039659;28;20060;-87
2022/08/28 06:02:16;;;;;;;3.05;2.08;;;;;;;;;;5039344;28;20033;-86
2022/08/28 06:04:41;;;;;;;3.15;1.90;;;;;;;;;;5038396;28;20408;-87
2022/08/28 06:07:10;;;;;;;3.42;1.70;;;;;;;;;;5037759;28;20033;-87
2022/08/28 06:09:37;;;;;;;2.58;1.67;;;;;;;;;;5054935;28;20089;-87
2022/08/28 06:12:03;;;;;;;2.10;1.50;;;;;;;;;;5055167;28;20493;-87
2022/08/28 06:14:30;;;;;;;2.53;1.50;;;;;;;;;;5061179;28;20637;-87
2022/08/28 06:16:56;;;;;;;3.78;1.58;;;;;;;;;;5058480;28;20138;-87
2022/08/28 06:19:24;;;;;;;2.38;1.55;;;;;;;;;;5039771;28;20124;-87
2022/08/28 06:21:53;;;;;;;2.53;1.42;;;;;;;;;;5057489;28;20127;-87
2022/08/28 06:24:19;;;;;;;2.22;1.50;;;;;;;;;;5060475;28;20076;-87
2022/08/28 06:26:44;;;;;;;1.60;1.50;;;;;;;;;;5043588;28;20041;-87
2022/08/28 06:29:14;;;;;;;2.10;1.50;;;;;;;;;;5060338;28;20033;-87
2022/08/28 06:31:40;;;;;;;2.38;1.50;;;;;;;;;;5060629;28;20055;-89
2022/08/28 06:34:08;;;;;;;2.30;1.48;;;;;;;;;;5043528;28;20025;-88
2022/08/28 06:36:36;;;;;;;1.45;1.35;;;;;;;;;;5060938;28;20032;-89
2022/08/28 06:39:04;;;;;;;1.85;1.42;;;;;;;;;;5058946;28;20075;-87
2022/08/28 06:41:31;;;;;;;1.67;1.40;;;;;;;;;;5041226;28;20082;-88
2022/08/28 06:43:57;;;;;;;2.83;1.50;;;;;;;;;;5041397;28;20221;-87
2022/08/28 06:46:23;;;;;;;3.45;1.50;;;;;;;;;;5041606;28;20033;-87
2022/08/28 06:48:50;;;;;;;2.60;1.50;;;;;;;;;;5042424;28;20082;-88
2022/08/28 06:51:16;;;;;;;3.78;1.63;;;;;;;;;;5041864;28;20513;-88
2022/08/28 06:53:43;;;;;;;2.97;1.20;;;;;;;;;;5058138;28;20043;-88
2022/08/28 06:56:16;;;;;;;1.80;1.27;;;;;;;;;;5041077;28;20033;-89
2022/08/28 06:58:43;;;;;;;;;;;;;;;;;;5041444;28;20060;-85
2022/08/28 07:01:12;;;;;;;2.50;1.42;;;;;;;;;;5059029;28;19909;-88
2022/08/28 07:03:39;;;;;;;1.92;1.50;;;;;;;;;;5058746;28;20477;-87
2022/08/28 07:06:06;;;;;;;1.98;1.75;;;;;;;;;;5040990;28;20032;-87
2022/08/28 07:08:34;;;;;;;1.88;1.60;;;;;;;;;;5024658;28;20501;-88
2022/08/28 07:11:12;;;;;;;1.60;1.25;;;;;;;;;;5059804;28;20167;-87
2022/08/28 07:13:39;;;;;;;1.95;1.40;;;;;;;;;;5059197;28;20048;-88
2022/08/28 07:16:06;;;;;;;2.72;1.30;;;;;;;;;;5060446;28;20516;-89
2022/08/28 07:18:31;;;;;;;1.77;1.35;;;;;;;;;;5040779;28;20048;-87
2022/08/28 07:20:59;;;;;;;2.22;1.48;;;;;;;;;;5058440;28;20024;-87
2022/08/28 07:23:26;;;;;;;3.30;1.30;;;;;;;;;;5059285;28;20432;-88
2022/08/28 07:25:52;;;;;;;2.78;1.60;;;;;;;;;;5040069;28;20402;-88
2022/08/28 07:28:17;;;;;;;4.30;1.42;;;;;;;;;;5060146;28;20029;-88
2022/08/28 07:30:43;;;;;;;1.67;1.45;;;;;;;;;;5039887;28;20065;-88
2022/08/28 07:33:09;;;;;;;2.63;1.40;;;;;;;;;;5056788;28;20071;-87
2022/08/28 07:35:34;;;;;;;5.07;1.33;;;;;;;;;;5057009;28;20501;-87
2022/08/28 07:38:00;;;;;;;2.78;1.73;;;;;;;;;;5056774;28;20036;-88
2022/08/28 07:40:25;;;;;;;2.83;1.48;;;;;;;;;;5057364;28;20037;-87
2022/08/28 07:45:35;;;;;;;1.38;1.20;;;;;;;;;;5059270;28;20037;-87
2022/08/28 07:48:06;;;;;;;4.03;1.38;;;;;;;;;;5059715;28;20029;-88
2022/08/28 07:50:33;;;;;;;1.73;1.50;;;;;;;;;;5059401;28;20041;-86
2022/08/28 07:52:59;;;;;;;3.22;1.50;;;;;;;;;;5057855;28;20040;-87
2022/08/28 07:55:26;;;;;;;4.07;1.40;;;;;;;;;;5060798;28;20032;-87
2022/08/28 07:57:52;;;;;;;1.77;1.40;;;;;;;;;;5055926;28;20033;-90
2022/08/28 08:00:18;;;;;;;2.13;1.40;;;;;;;;;;5055182;28;20027;-89
2022/08/28 08:02:44;;;;;;;2.50;1.70;;;;;;;;;;5038631;28;20413;-87
2022/08/28 08:05:10;;;;;;;2.17;1.70;;;;;;;;;;5037790;28;20569;-89
2022/08/28 08:07:39;;;;;;;1.98;1.52;;;;;;;;;;5040087;28;20040;-88
2022/08/28 08:10:08;;;;;;;4.13;1.90;;;;;;;;;;5058619;28;20036;-88
2022/08/28 08:12:33;;;;;;;4.10;1.80;;;;;;;;;;5041272;28;20033;-90
2022/08/28 08:14:59;;;;;;;2.95;1.80;;;;;;;;;;5039310;28;20079;-89
2022/08/28 08:17:25;;;;;;;3.85;2.00;;;;;;;;;;5059627;28;20049;-87
2022/08/28 08:19:51;;;;;;;2.47;2.08;;;;;;;;;;5057553;28;20064;-88
2022/08/28 08:22:17;;;;;;;2.72;2.00;;;;;;;;;;5039480;28;20033;-88
2022/08/28 08:24:42;;;;;;;4.60;2.00;;;;;;;;;;5056588;28;20048;-89
2022/08/28 08:27:09;;;;;;;5.78;2.10;;;;;;;;;;5056051;28;20035;-86
2022/08/28 08:29:36;;;;;;;4.53;2.15;;;;;;;;;;5055904;28;20047;-87
2022/08/28 08:32:08;;;;;;;3.00;2.08;;;;;;;;;;5037809;28;20501;-88
2022/08/28 08:34:37;;;;;;;2.40;1.80;;;;;;;;;;5054733;28;20038;-88
2022/08/28 08:37:04;;;;;;;3.65;2.20;;;;;;;;;;5056866;28;20032;-88
2022/08/28 08:39:31;;;;;;;3.17;2.15;;;;;;;;;;5057245;28;20107;-87
2022/08/28 08:41:59;;;;;;;2.80;2.10;;;;;;;;;;5055903;28;20025;-87
2022/08/28 08:44:41;;;;;;;2.85;1.90;;;;;;;;;;5054253;28;20032;-87
2022/08/28 08:47:15;;;;;;;3.95;2.42;;;;;;;;;;5037541;28;20056;-81
2022/08/28 08:49:51;;;;;;;3.92;2.42;;;;;;;;;;5037941;28;20103;-87
2022/08/28 08:52:27;;;;;;;3.00;2.50;;;;;;;;;;5037712;28;20037;-87
2022/08/28 08:55:08;;;;;;;4.22;2.30;;;;;;;;;;5055430;28;20037;-87
2022/08/28 08:57:37;;;;;;;4.22;2.85;;;;;;;;;;5056010;28;20064;-87
2022/08/28 09:00:06;;;;;;;3.28;2.70;;;;;;;;;;5055166;28;20025;-87
2022/08/28 09:02:37;;;;;;;4.53;3.40;;;;;;;;;;5039038;28;20033;-87
2022/08/28 09:05:10;;;;;;;3.97;2.72;;;;;;;;;;5056045;28;20501;-87
2022/08/28 09:07:43;;;;;;;4.15;3.17;;;;;;;;;;5056666;28;20075;-87
2022/08/28 09:10:11;;;;;;;4.50;3.20;;;;;;;;;;5056064;28;20028;-87
2022/08/28 09:13:16;;;;;;;4.38;3.20;;;;;;;;;;5055429;28;20037;-87
2022/08/28 09:15:45;;;;;;;4.55;3.50;;;;;;;;;;5037485;28;20033;-87
2022/08/28 09:18:27;;;;;;;4.97;3.63;;;;;;;;;;5021273;28;20037;-88
2022/08/28 09:20:55;;;;;;;5.10;3.40;;;;;;;;;;5038681;28;20048;-87
2022/08/28 09:23:22;;;;;;;4.40;3.45;;;;;;;;;;5056147;28;20039;-87
2022/08/28 09:25:55;;;;;;;5.88;3.83;;;;;;;;;;5056002;28;20029;-89
2022/08/28 09:28:22;;;;;;;5.00;3.72;;;;;;;;;;5018349;28;20029;-91
2022/08/28 09:30:53;;;;;;;5.05;3.67;;;;;;;;;;5034065;28;20107;-90
2022/08/28 09:33:41;;;;;;;8.30;3.95;;;;;;;;;;5033894;28;20039;-91
2022/08/28 09:36:36;;;;;;;6.15;4.05;;;;;;;;;;5051467;28;20032;-91
2022/08/28 09:39:20;;;;;;;5.05;3.90;;;;;;;;;;5031268;28;20056;-89
2022/08/28 09:45:12;;;;;;;6.63;4.50;;;;;;;;;;5029285;28;20474;-91
2022/08/28 09:47:41;;;;;;;8.27;4.65;;;;;;;;;;5024397;28;20029;-87
2022/08/28 09:50:20;;;;;;;8.05;4.63;;;;;;;;;;5031331;28;20051;-87
2022/08/28 09:52:46;;;;;;;6.93;5.07;;;;;;;;;;5031677;28;20494;-89
2022/08/28 09:55:42;;;;;;;7.53;5.18;;;;;;;;;;5013604;28;20102;-89
2022/08/28 09:58:09;;;;;;;5.82;4.78;;;;;;;;;;5011332;28;20569;-90
2022/08/28 10:00:38;;;;;;;7.40;5.20;;;;;;;;;;5035563;28;20068;-90
2022/08/28 10:03:16;;;;;;;8.02;5.50;;;;;;;;;;5035477;28;20060;-89
2022/08/28 10:05:45;;;;;;;7.95;5.70;;;;;;;;;;5017420;28;20052;-88
2022/08/28 10:08:46;;;;;;;8.27;5.80;;;;;;;;;;5035333;28;20509;-89
2022/08/28 10:11:29;;;;;;;9.75;5.93;;;;;;;;;;5035197;28;20607;-89
2022/08/28 10:14:27;;;;;;;8.02;5.75;;;;;;;;;;5035193;28;20469;-90
2022/08/28 10:17:11;;;;;;;9.80;6.10;;;;;;;;;;5032242;28;20037;-89
2022/08/28 10:19:51;;;;;;;9.00;5.85;;;;;;;;;;5055026;28;20492;-90
2022/08/28 10:22:53;;;;;;;8.40;5.68;;;;;;;;;;5037592;28;20420;-89
2022/08/28 10:25:25;;;;;;;7.38;5.13;;;;;;;;;;5037000;28;20033;-89
2022/08/28 10:28:09;;;;;;;9.25;5.82;;;;;;;;;;5055167;28;20032;-89
2022/08/28 10:30:38;;;;;;;;;;;;;;;;;;5055338;28;20041;-85
2022/08/28 10:33:15;;;;;;;7.20;4.97;;;;;;;;;;5037651;28;20007;-88
2022/08/28 10:36:00;;;;;;;6.43;4.93;;;;;;;;;;5053246;28;20564;-88
2022/08/28 10:38:39;;;;;;;7.18;4.97;;;;;;;;;;5054574;28;20456;-87
2022/08/28 10:41:11;;;;;;;6.95;4.80;;;;;;;;;;5036983;28;20094;-88
2022/08/28 10:43:42;;;;;;;7.15;5.18;;;;;;;;;;5037080;28;20083;-88
2022/08/28 10:46:22;;;;;;;5.90;5.00;;;;;;;;;;5036574;28;20087;-86
2022/08/28 10:49:05;;;;;;;5.45;4.03;;;;;;;;;;5054493;28;20025;-88
2022/08/28 10:51:42;;;;;;;6.68;5.13;;;;;;;;;;5036816;28;20033;-88
2022/08/28 10:54:44;;;;;;;8.88;4.82;;;;;;;;;;5054499;28;20033;-88
2022/08/28 10:57:15;;;;;;;7.60;4.85;;;;;;;;;;5007058;28;20051;-87
2022/08/28 10:59:47;;;;;;;6.25;4.85;;;;;;;;;;5054159;28;20047;-87
2022/08/28 11:02:15;;;;;;;7.57;4.30;;;;;;;;;;5054802;28;20029;-88
2022/08/28 11:04:41;;;;;;;6.20;4.53;;;;;;;;;;5054004;28;20453;-88
2022/08/28 11:07:14;;;;;;;5.70;4.38;;;;;;;;;;5053910;28;20512;-89
2022/08/28 11:09:46;;;;;;;6.32;3.55;;;;;;;;;;5054248;28;20492;-87
2022/08/28 11:12:18;;;;;;;5.85;3.50;;;;;;;;;;5036378;28;20497;-89
2022/08/28 11:14:53;;;;;;;5.33;3.50;;;;;;;;;;5054462;28;20029;-89
2022/08/28 11:17:21;;;;;;;4.45;2.97;;;;;;;;;;5054152;28;20037;-88
2022/08/28 11:19:52;;;;;;;3.78;2.90;;;;;;;;;;5036172;28;20032;-87
2022/08/28 11:22:27;;;;;;;4.65;3.20;;;;;;;;;;5053842;28;20119;-87
2022/08/28 11:25:03;;;;;;;5.10;2.90;;;;;;;;;;5053666;28;20041;-87
2022/08/28 11:27:34;;;;;;;4.93;3.50;;;;;;;;;;5053835;28;20037;-87
2022/08/28 11:30:09;;;;;;;3.83;3.15;;;;;;;;;;5035892;28;20029;-87
2022/08/28 11:32:50;;;;;;;4.90;3.33;;;;;;;;;;5053731;28;20033;-87
2022/08/28 11:35:28;;;;;;;5.88;3.80;;;;;;;;;;5053512;28;20494;-87
2022/08/28 11:37:54;;;;;;;5.88;3.67;;;;;;;;;;5053558;28;20036;-87
2022/08/28 11:40:29;;;;;;;4.72;3.60;;;;;;;;;;5053653;28;20031;-88
2022/08/28 11:43:13;;;;;;;8.63;4.43;;;;;;;;;;5053915;28;20029;-87
2022/08/28 11:45:41;;;;;;;6.38;4.47;;;;;;;;;;5036115;28;20029;-87
2022/08/28 11:48:34;;;;;;;7.97;5.13;;;;;;;;;;5035964;28;20490;-88
2022/08/28 11:51:27;;;;;;;5.25;4.10;;;;;;;;;;5053332;28;20032;-87
2022/08/28 11:54:11;;;;;;;5.00;3.30;;;;;;;;;;5036080;28;20032;-87
2022/08/28 11:57:01;;;;;;;6.15;3.40;;;;;;;;;;5035757;28;20482;-88
2022/08/28 11:59:26;;;;;;;4.40;3.10;;;;;;;;;;5035618;28;20481;-83
2022/08/28 12:01:52;;;;;;;4.40;3.13;;;;;;;;;;5035639;28;20037;-87
2022/08/28 12:04:21;;;;;;;4.20;3.15;;;;;;;;;;5053194;28;20033;-87
2022/08/28 12:07:11;;;;;;;4.80;3.05;;;;;;;;;;5035590;28;20035;-88
2022/08/28 12:09:41;;;;;;;6.18;3.53;;;;;;;;;;5052814;28;20035;-87
2022/08/28 12:12:21;;;;;;;5.07;3.70;;;;;;;;;;5053312;28;20128;-88
2022/08/28 12:14:47;;;;;;;6.07;3.75;;;;;;;;;;5035157;28;20104;-88
2022/08/28 12:17:19;;;;;;;5.47;3.60;;;;;;;;;;5052753;28;20620;-87
2022/08/28 12:20:09;;;;;;;5.90;3.65;;;;;;;;;;5052121;28;20072;-88
2022/08/28 12:22:53;;;;;;;6.43;4.00;;;;;;;;;;5035234;28;20051;-88
2022/08/28 12:25:32;;;;;;;5.80;3.78;;;;;;;;;;5034558;28;20035;-89
2022/08/28 12:28:24;;;;;;;5.78;4.32;;;;;;;;;;5052832;28;20029;-89
2022/08/28 12:31:11;;;;;;;7.70;4.45;;;;;;;;;;5015940;28;20052;-88
2022/08/28 12:33:52;;;;;;;6.78;5.10;;;;;;;;;;5052368;28;20408;-88
2022/08/28 12:36:25;;;;;;;8.65;5.07;;;;;;;;;;5053184;28;20485;-88
2022/08/28 12:38:52;;;;;;;8.32;5.47;;;;;;;;;;5052443;28;20044;-88
2022/08/28 12:41:19;;;;;;;10.35;5.22;;;;;;;;;;5052619;28;20051;-88
2022/08/28 12:43:47;;;;;;;6.65;5.45;;;;;;;;;;5035648;28;20028;-88
2022/08/28 12:46:22;;;;;;;8.00;5.82;;;;;;;;;;5034743;28;20111;-87
2022/08/28 12:48:51;;;;;;;7.93;5.90;;;;;;;;;;5034985;28;20039;-87
2022/08/28 12:51:24;;;;;;;8.20;5.43;;;;;;;;;;5052343;28;20533;-86
2022/08/28 12:53:59;;;;;;;8.80;5.78;;;;;;;;;;5054290;28;20122;-87
2022/08/28 12:56:32;;;;;;;7.30;5.65;;;;;;;;;;5052362;28;20040;-88
2022/08/28 12:59:32;;;;;;;9.77;5.70;;;;;;;;;;5052247;28;20029;-87
2022/08/28 13:02:10;;;;;;;8.55;4.90;;;;;;;;;;5034380;28;20182;-88
2022/08/28 13:04:51;;;;;;;6.82;4.72;;;;;;;;;;5053074;28;20037;-88
2022/08/28 13:07:25;;;;;;;5.43;4.50;;;;;;;;;;5052415;28;20041;-87
2022/08/28 13:17:48;;;;;;;9.35;5.10;;;;;;;;;;5482486;22;20095;-89
2022/08/28 13:20:35;;;;;;;7.85;5.95;;;;;;;;;;5051982;28;20037;-88
2022/08/28 13:23:00;;;;;;;10.05;5.53;;;;;;;;;;5050958;28;20120;-87
2022/08/28 13:25:36;;;;;;;6.88;5.32;;;;;;;;;;5050714;28;20127;-88
2022/08/28 13:28:11;;;;;;;8.10;5.65;;;;;;;;;;5052332;28;20039;-88
2022/08/28 13:30:37;;;;;;;7.50;5.55;;;;;;;;;;5052032;28;20033;-89
2022/08/28 13:33:22;;;;;;;9.20;6.03;;;;;;;;;;5058616;28;20037;-88
2022/08/28 13:35:49;;;;;;;8.23;6.00;;;;;;;;;;5058509;28;20029;-88
2022/08/28 13:38:20;;;;;;;9.13;6.22;;;;;;;;;;5057332;28;20074;-88
2022/08/28 13:40:53;;;;;;;8.13;5.82;;;;;;;;;;5058435;28;20268;-87
2022/08/28 13:43:21;;;;;;;8.75;5.60;;;;;;;;;;5058805;28;20040;-90
2022/08/28 13:45:48;;;;;;;8.45;5.72;;;;;;;;;;5056851;28;20098;-90
2022/08/28 13:48:16;;;;;;;7.65;5.47;;;;;;;;;;5057062;28;20033;-91
2022/08/28 13:50:45;;;;;;;9.20;5.50;;;;;;;;;;5058461;28;20036;-88
2022/08/28 13:53:10;;;;;;;6.43;5.10;;;;;;;;;;5057005;28;20044;-89
2022/08/28 13:55:36;;;;;;;7.93;5.05;;;;;;;;;;5057974;28;20025;-88
2022/08/28 13:58:02;;;;;;;6.65;5.40;;;;;;;;;;5060399;28;20036;-88
2022/08/28 14:00:33;;;;;;;9.82;4.97;;;;;;;;;;5058807;28;20093;-87
2022/08/28 14:05:43;;;;;;;7.03;5.13;;;;;;;;;;5056763;28;20029;-87
2022/08/28 14:08:08;;;;;;;6.97;5.07;;;;;;;;;;5056866;28;20371;-88
2022/08/28 14:10:34;;;;;;;6.07;4.82;;;;;;;;;;5058048;28;20055;-88
2022/08/28 14:13:00;;;;;;;6.50;4.78;;;;;;;;;;5058936;28;20029;-88
2022/08/28 14:15:25;;;;;;;7.60;5.20;;;;;;;;;;5059654;28;20175;-88
2022/08/28 14:17:52;;;;;;;5.93;4.90;;;;;;;;;;5058868;28;20146;-87
2022/08/28 14:20:17;;;;;;;6.53;4.97;;;;;;;;;;5059123;28;20033;-88
2022/08/28 14:22:43;;;;;;;6.97;4.88;;;;;;;;;;5060605;28;20044;-88
2022/08/28 14:25:09;;;;;;;6.00;4.72;;;;;;;;;;5059688;28;20040;-88
2022/08/28 14:27:34;;;;;;;5.82;4.43;;;;;;;;;;5063224;28;20044;-88
2022/08/28 14:30:00;;;;;;;5.45;4.40;;;;;;;;;;5060741;28;20029;-89
2022/08/28 14:32:26;;;;;;;5.82;3.88;;;;;;;;;;5062329;28;20039;-87
2022/08/28 14:34:52;;;;;;;5.30;3.35;;;;;;;;;;5060075;28;20028;-86
2022/08/28 14:37:18;;;;;;;5.40;4.00;;;;;;;;;;5061265;28;20040;-88
2022/08/28 14:39:44;;;;;;;4.28;3.67;;;;;;;;;;5061651;28;20031;-88
2022/08/28 14:42:09;;;;;;;5.60;3.85;;;;;;;;;;5058593;28;20045;-86
2022/08/28 14:44:37;;;;;;;4.45;3.85;;;;;;;;;;5058533;28;20032;-87
2022/08/28 14:47:03;;;;;;;5.18;3.72;;;;;;;;;;5057405;28;20426;-88
2022/08/28 14:49:31;;;;;;;4.93;3.42;;;;;;;;;;5058671;28;20528;-87
2022/08/28 14:52:04;;;;;;;5.68;3.70;;;;;;;;;;5058848;28;20041;-87
2022/08/28 14:54:29;;;;;;;6.15;3.45;;;;;;;;;;5059484;28;20154;-87
2022/08/28 14:56:56;;;;;;;5.32;3.60;;;;;;;;;;5059783;28;20161;-88
2022/08/28 14:59:24;;;;;;;4.97;3.65;;;;;;;;;;5058455;28;20028;-87
2022/08/28 15:01:51;;;;;;;5.70;3.40;;;;;;;;;;5058837;28;20037;-88
2022/08/28 15:04:21;;;;;;;5.32;3.50;;;;;;;;;;5056943;28;20049;-88
2022/08/28 15:06:54;;;;;;;4.55;3.60;;;;;;;;;;5057291;28;20078;-87
2022/08/28 15:09:19;;;;;;;8.00;4.50;;;;;;;;;;5056514;28;20170;-86
2022/08/28 15:11:45;;;;;;;6.22;4.60;;;;;;;;;;5055927;28;20512;-86
2022/08/28 15:14:11;;;;;;;6.07;4.13;;;;;;;;;;5057228;28;20080;-88
2022/08/28 15:16:39;;;;;;;6.03;4.20;;;;;;;;;;5056423;28;20654;-87
2022/08/28 15:19:10;;;;;;;6.25;4.38;;;;;;;;;;5058985;28;20032;-86
2022/08/28 15:21:40;;;;;;;5.30;4.43;;;;;;;;;;5066375;28;20124;-85